Two Hills, Canada
Current Conditions -  °F | °C
As of 12:00 PM on Saturday 20 Dec 2014 (Local Time) from CYED Reporting Station
Clear Clear  
Wind Chill: 23°   Ceiling: Unl
Heat Index: 28°   Visibility: 9mi
Dew Point: 18°   Wind: 5mph
Humidity: 64%   Direction: 210°SSW
Pressure: 29.59"   Gusts: NA
Location:  53.72°N, 111.75°W
Report Text: CYED 201900Z AUTO 21004KT 9SM CLR M02/M08 A2959 RMK SLP058
Loading
Personal Weather Stations






























Interactive Weather Map New forecast layout! Learn more

10-Day Weather Forecast

Advertisements
Track Severe Weather on mobile